METAR Data
IDs: Format: Raw Decoded Include TAF

Data at: 2210 UTC 01 Oct 2022

LJCE 012200Z AUTO 27006KT 9999 R09///// NSC 13/11 Q1016